sensor_id;sensor_type;location;lat;lon;timestamp;P1;durP1;ratioP1;P2;durP2;ratioP2
6531;SDS011;3299;42.004;24.868;2023-11-19T00:00:18;1.00;;;1.00;;
6531;SDS011;3299;42.004;24.868;2023-11-19T00:02:44;2.10;;;1.00;;
6531;SDS011;3299;42.004;24.868;2023-11-19T00:05:10;1.00;;;1.00;;
6531;SDS011;3299;42.004;24.868;2023-11-19T00:07:38;1.05;;;1.05;;
6531;SDS011;3299;42.004;24.868;2023-11-19T00:10:07;1.48;;;1.38;;
6531;SDS011;3299;42.004;24.868;2023-11-19T00:12:35;1.90;;;1.30;;
6531;SDS011;3299;42.004;24.868;2023-11-19T00:15:00;1.58;;;1.48;;
6531;SDS011;3299;42.004;24.868;2023-11-19T00:17:26;2.42;;;1.75;;
6531;SDS011;3299;42.004;24.868;2023-11-19T00:19:52;2.60;;;1.95;;
6531;SDS011;3299;42.004;24.868;2023-11-19T00:22:17;1.67;;;1.40;;
6531;SDS011;3299;42.004;24.868;2023-11-19T00:24:43;1.02;;;1.02;;
6531;SDS011;3299;42.004;24.868;2023-11-19T00:27:13;1.60;;;1.48;;
6531;SDS011;3299;42.004;24.868;2023-11-19T00:29:38;1.13;;;1.08;;
6531;SDS011;3299;42.004;24.868;2023-11-19T00:32:04;1.13;;;1.10;;
6531;SDS011;3299;42.004;24.868;2023-11-19T00:34:30;1.48;;;1.38;;
6531;SDS011;3299;42.004;24.868;2023-11-19T00:36:56;1.10;;;1.10;;
6531;SDS011;3299;42.004;24.868;2023-11-19T00:39:21;1.45;;;1.35;;
6531;SDS011;3299;42.004;24.868;2023-11-19T00:41:47;2.25;;;1.40;;
6531;SDS011;3299;42.004;24.868;2023-11-19T00:44:13;0.90;;;0.90;;
6531;SDS011;3299;42.004;24.868;2023-11-19T00:46:39;1.13;;;0.73;;
6531;SDS011;3299;42.004;24.868;2023-11-19T00:49:05;1.20;;;1.10;;
6531;SDS011;3299;42.004;24.868;2023-11-19T00:51:30;2.25;;;1.60;;
6531;SDS011;3299;42.004;24.868;2023-11-19T00:53:59;2.17;;;1.55;;
6531;SDS011;3299;42.004;24.868;2023-11-19T00:56:26;2.92;;;1.88;;
6531;SDS011;3299;42.004;24.868;2023-11-19T00:58:51;1.38;;;1.27;;
6531;SDS011;3299;42.004;24.868;2023-11-19T01:01:17;2.53;;;1.45;;
6531;SDS011;3299;42.004;24.868;2023-11-19T01:03:42;5.60;;;3.72;;
6531;SDS011;3299;42.004;24.868;2023-11-19T01:06:08;9.95;;;4.70;;
6531;SDS011;3299;42.004;24.868;2023-11-19T01:08:33;5.28;;;2.63;;
6531;SDS011;3299;42.004;24.868;2023-11-19T01:11:00;8.38;;;4.00;;
6531;SDS011;3299;42.004;24.868;2023-11-19T01:13:28;6.20;;;4.05;;
6531;SDS011;3299;42.004;24.868;2023-11-19T01:15:54;1.63;;;1.52;;
6531;SDS011;3299;42.004;24.868;2023-11-19T01:18:21;1.00;;;1.00;;
6531;SDS011;3299;42.004;24.868;2023-11-19T01:20:47;1.20;;;1.10;;
6531;SDS011;3299;42.004;24.868;2023-11-19T01:23:12;1.75;;;1.65;;
6531;SDS011;3299;42.004;24.868;2023-11-19T01:25:38;1.50;;;1.40;;
6531;SDS011;3299;42.004;24.868;2023-11-19T01:28:04;0.80;;;0.80;;
6531;SDS011;3299;42.004;24.868;2023-11-19T01:30:29;1.20;;;1.20;;
6531;SDS011;3299;42.004;24.868;2023-11-19T01:33:16;1.02;;;1.02;;
6531;SDS011;3299;42.004;24.868;2023-11-19T01:35:41;0.90;;;0.90;;
6531;SDS011;3299;42.004;24.868;2023-11-19T01:38:08;0.88;;;0.88;;
6531;SDS011;3299;42.004;24.868;2023-11-19T01:40:34;0.93;;;0.93;;
6531;SDS011;3299;42.004;24.868;2023-11-19T01:43:03;1.20;;;1.10;;
6531;SDS011;3299;42.004;24.868;2023-11-19T01:45:36;1.20;;;1.00;;
6531;SDS011;3299;42.004;24.868;2023-11-19T01:48:05;0.88;;;0.88;;
6531;SDS011;3299;42.004;24.868;2023-11-19T01:50:30;1.00;;;1.00;;
6531;SDS011;3299;42.004;24.868;2023-11-19T01:52:57;1.02;;;1.02;;
6531;SDS011;3299;42.004;24.868;2023-11-19T01:55:23;1.08;;;0.98;;
6531;SDS011;3299;42.004;24.868;2023-11-19T01:57:50;1.30;;;1.25;;
6531;SDS011;3299;42.004;24.868;2023-11-19T02:00:18;1.00;;;1.00;;
6531;SDS011;3299;42.004;24.868;2023-11-19T02:02:44;0.93;;;0.93;;
6531;SDS011;3299;42.004;24.868;2023-11-19T02:05:11;0.93;;;0.93;;
6531;SDS011;3299;42.004;24.868;2023-11-19T02:07:41;1.42;;;1.40;;
6531;SDS011;3299;42.004;24.868;2023-11-19T02:10:06;1.02;;;1.02;;
6531;SDS011;3299;42.004;24.868;2023-11-19T02:12:33;1.05;;;1.05;;
6531;SDS011;3299;42.004;24.868;2023-11-19T02:15:02;1.00;;;1.00;;
6531;SDS011;3299;42.004;24.868;2023-11-19T02:17:31;3.95;;;1.10;;
6531;SDS011;3299;42.004;24.868;2023-11-19T02:19:57;1.20;;;1.20;;
6531;SDS011;3299;42.004;24.868;2023-11-19T02:22:23;1.25;;;1.15;;
6531;SDS011;3299;42.004;24.868;2023-11-19T02:24:49;0.93;;;0.93;;
6531;SDS011;3299;42.004;24.868;2023-11-19T02:27:23;1.10;;;1.10;;
6531;SDS011;3299;42.004;24.868;2023-11-19T02:29:50;2.33;;;1.30;;
6531;SDS011;3299;42.004;24.868;2023-11-19T02:32:16;1.20;;;1.20;;
6531;SDS011;3299;42.004;24.868;2023-11-19T02:34:42;2.42;;;1.20;;
6531;SDS011;3299;42.004;24.868;2023-11-19T02:37:07;1.23;;;1.13;;
6531;SDS011;3299;42.004;24.868;2023-11-19T02:39:33;1.38;;;1.30;;
6531;SDS011;3299;42.004;24.868;2023-11-19T02:41:58;1.27;;;1.27;;
6531;SDS011;3299;42.004;24.868;2023-11-19T02:44:25;1.75;;;1.50;;
6531;SDS011;3299;42.004;24.868;2023-11-19T02:46:53;1.30;;;1.20;;
6531;SDS011;3299;42.004;24.868;2023-11-19T02:49:18;1.13;;;1.13;;
6531;SDS011;3299;42.004;24.868;2023-11-19T02:51:44;1.30;;;1.17;;
6531;SDS011;3299;42.004;24.868;2023-11-19T02:54:09;1.35;;;1.35;;
6531;SDS011;3299;42.004;24.868;2023-11-19T02:56:35;1.20;;;1.20;;
6531;SDS011;3299;42.004;24.868;2023-11-19T02:59:02;1.23;;;1.23;;
6531;SDS011;3299;42.004;24.868;2023-11-19T03:01:39;1.13;;;1.10;;
6531;SDS011;3299;42.004;24.868;2023-11-19T03:04:08;1.40;;;1.40;;
6531;SDS011;3299;42.004;24.868;2023-11-19T03:06:37;1.35;;;1.35;;
6531;SDS011;3299;42.004;24.868;2023-11-19T03:09:02;1.55;;;1.45;;
6531;SDS011;3299;42.004;24.868;2023-11-19T03:11:32;1.20;;;1.20;;
6531;SDS011;3299;42.004;24.868;2023-11-19T03:13:58;1.50;;;1.50;;
6531;SDS011;3299;42.004;24.868;2023-11-19T03:16:24;3.17;;;1.20;;
6531;SDS011;3299;42.004;24.868;2023-11-19T03:18:49;1.13;;;1.08;;
6531;SDS011;3299;42.004;24.868;2023-11-19T03:21:15;1.50;;;1.40;;
6531;SDS011;3299;42.004;24.868;2023-11-19T03:23:41;1.25;;;1.20;;
6531;SDS011;3299;42.004;24.868;2023-11-19T03:26:06;1.52;;;1.42;;
6531;SDS011;3299;42.004;24.868;2023-11-19T03:28:33;1.13;;;1.13;;
6531;SDS011;3299;42.004;24.868;2023-11-19T03:30:58;1.02;;;1.02;;
6531;SDS011;3299;42.004;24.868;2023-11-19T03:33:23;1.30;;;1.20;;
6531;SDS011;3299;42.004;24.868;2023-11-19T03:35:50;1.40;;;1.30;;
6531;SDS011;3299;42.004;24.868;2023-11-19T03:38:17;1.20;;;1.20;;
6531;SDS011;3299;42.004;24.868;2023-11-19T03:40:42;1.30;;;1.30;;
6531;SDS011;3299;42.004;24.868;2023-11-19T03:43:07;3.28;;;1.45;;
6531;SDS011;3299;42.004;24.868;2023-11-19T03:45:34;0.93;;;0.93;;
6531;SDS011;3299;42.004;24.868;2023-11-19T03:48:01;1.10;;;1.10;;
6531;SDS011;3299;42.004;24.868;2023-11-19T03:50:26;1.55;;;1.55;;
6531;SDS011;3299;42.004;24.868;2023-11-19T03:52:52;1.40;;;1.40;;
6531;SDS011;3299;42.004;24.868;2023-11-19T03:55:17;1.35;;;1.00;;
6531;SDS011;3299;42.004;24.868;2023-11-19T03:57:43;1.33;;;1.27;;
6531;SDS011;3299;42.004;24.868;2023-11-19T04:00:08;1.40;;;1.40;;
6531;SDS011;3299;42.004;24.868;2023-11-19T04:02:39;1.38;;;1.38;;
6531;SDS011;3299;42.004;24.868;2023-11-19T04:05:05;1.63;;;1.52;;
6531;SDS011;3299;42.004;24.868;2023-11-19T04:07:31;1.40;;;1.40;;
6531;SDS011;3299;42.004;24.868;2023-11-19T04:09:57;2.15;;;1.40;;
6531;SDS011;3299;42.004;24.868;2023-11-19T04:12:23;1.58;;;1.48;;
6531;SDS011;3299;42.004;24.868;2023-11-19T04:14:48;1.25;;;1.25;;
6531;SDS011;3299;42.004;24.868;2023-11-19T04:17:13;1.40;;;1.40;;
6531;SDS011;3299;42.004;24.868;2023-11-19T04:19:39;3.28;;;1.42;;
6531;SDS011;3299;42.004;24.868;2023-11-19T04:22:06;1.63;;;1.60;;
6531;SDS011;3299;42.004;24.868;2023-11-19T04:24:33;1.40;;;1.40;;
6531;SDS011;3299;42.004;24.868;2023-11-19T04:26:58;1.40;;;1.30;;
6531;SDS011;3299;42.004;24.868;2023-11-19T04:29:24;1.25;;;1.25;;
6531;SDS011;3299;42.004;24.868;2023-11-19T04:31:50;1.60;;;1.50;;
6531;SDS011;3299;42.004;24.868;2023-11-19T04:34:15;1.15;;;1.15;;
6531;SDS011;3299;42.004;24.868;2023-11-19T04:36:41;1.60;;;1.30;;
6531;SDS011;3299;42.004;24.868;2023-11-19T04:39:06;1.60;;;1.50;;
6531;SDS011;3299;42.004;24.868;2023-11-19T04:41:35;1.10;;;1.10;;
6531;SDS011;3299;42.004;24.868;2023-11-19T04:44:01;1.75;;;1.65;;
6531;SDS011;3299;42.004;24.868;2023-11-19T04:46:27;2.22;;;1.58;;
6531;SDS011;3299;42.004;24.868;2023-11-19T04:48:52;1.13;;;1.10;;
6531;SDS011;3299;42.004;24.868;2023-11-19T04:51:17;1.40;;;1.35;;
6531;SDS011;3299;42.004;24.868;2023-11-19T04:53:43;1.50;;;1.40;;
6531;SDS011;3299;42.004;24.868;2023-11-19T04:56:09;1.05;;;0.90;;
6531;SDS011;3299;42.004;24.868;2023-11-19T04:58:35;1.35;;;1.35;;
6531;SDS011;3299;42.004;24.868;2023-11-19T05:01:02;1.40;;;1.40;;
6531;SDS011;3299;42.004;24.868;2023-11-19T05:03:28;1.50;;;1.40;;
6531;SDS011;3299;42.004;24.868;2023-11-19T05:05:54;1.60;;;1.50;;
6531;SDS011;3299;42.004;24.868;2023-11-19T05:08:20;1.67;;;1.58;;
6531;SDS011;3299;42.004;24.868;2023-11-19T05:10:45;1.77;;;1.67;;
6531;SDS011;3299;42.004;24.868;2023-11-19T05:13:10;1.50;;;1.50;;
6531;SDS011;3299;42.004;24.868;2023-11-19T05:15:37;1.70;;;1.60;;
6531;SDS011;3299;42.004;24.868;2023-11-19T05:18:03;1.30;;;1.30;;
6531;SDS011;3299;42.004;24.868;2023-11-19T05:20:29;1.55;;;1.40;;
6531;SDS011;3299;42.004;24.868;2023-11-19T05:22:55;2.45;;;1.40;;
6531;SDS011;3299;42.004;24.868;2023-11-19T05:25:20;1.33;;;1.30;;
6531;SDS011;3299;42.004;24.868;2023-11-19T05:27:46;1.33;;;1.30;;
6531;SDS011;3299;42.004;24.868;2023-11-19T05:30:11;1.50;;;1.40;;
6531;SDS011;3299;42.004;24.868;2023-11-19T05:32:37;1.60;;;1.50;;
6531;SDS011;3299;42.004;24.868;2023-11-19T05:35:04;1.25;;;1.25;;
6531;SDS011;3299;42.004;24.868;2023-11-19T05:37:30;1.20;;;1.20;;
6531;SDS011;3299;42.004;24.868;2023-11-19T05:39:56;1.15;;;1.15;;
6531;SDS011;3299;42.004;24.868;2023-11-19T05:42:21;2.42;;;1.20;;
6531;SDS011;3299;42.004;24.868;2023-11-19T05:44:47;1.40;;;1.40;;
6531;SDS011;3299;42.004;24.868;2023-11-19T05:47:12;1.30;;;1.30;;
6531;SDS011;3299;42.004;24.868;2023-11-19T05:49:37;1.38;;;1.30;;
6531;SDS011;3299;42.004;24.868;2023-11-19T05:52:03;1.45;;;1.45;;
6531;SDS011;3299;42.004;24.868;2023-11-19T05:54:32;2.05;;;1.58;;
6531;SDS011;3299;42.004;24.868;2023-11-19T05:57:02;1.77;;;1.40;;
6531;SDS011;3299;42.004;24.868;2023-11-19T05:59:34;1.40;;;1.30;;
6531;SDS011;3299;42.004;24.868;2023-11-19T06:02:01;1.27;;;1.27;;
6531;SDS011;3299;42.004;24.868;2023-11-19T06:04:27;1.30;;;1.30;;
6531;SDS011;3299;42.004;24.868;2023-11-19T06:06:52;1.58;;;1.50;;
6531;SDS011;3299;42.004;24.868;2023-11-19T06:09:19;1.75;;;1.65;;
6531;SDS011;3299;42.004;24.868;2023-11-19T06:11:46;1.30;;;1.20;;
6531;SDS011;3299;42.004;24.868;2023-11-19T06:14:12;1.50;;;1.50;;
6531;SDS011;3299;42.004;24.868;2023-11-19T06:16:37;1.63;;;1.58;;
6531;SDS011;3299;42.004;24.868;2023-11-19T06:19:05;1.80;;;1.70;;
6531;SDS011;3299;42.004;24.868;2023-11-19T06:21:30;1.40;;;1.40;;
6531;SDS011;3299;42.004;24.868;2023-11-19T06:23:55;1.38;;;1.20;;
6531;SDS011;3299;42.004;24.868;2023-11-19T06:26:21;1.50;;;1.42;;
6531;SDS011;3299;42.004;24.868;2023-11-19T06:28:47;1.25;;;1.23;;
6531;SDS011;3299;42.004;24.868;2023-11-19T06:31:12;2.42;;;1.38;;
6531;SDS011;3299;42.004;24.868;2023-11-19T06:33:41;1.30;;;1.30;;
6531;SDS011;3299;42.004;24.868;2023-11-19T06:36:07;1.42;;;1.38;;
6531;SDS011;3299;42.004;24.868;2023-11-19T06:38:34;1.27;;;1.27;;
6531;SDS011;3299;42.004;24.868;2023-11-19T06:41:00;1.70;;;1.42;;
6531;SDS011;3299;42.004;24.868;2023-11-19T06:43:26;1.50;;;1.50;;
6531;SDS011;3299;42.004;24.868;2023-11-19T06:45:53;1.60;;;1.50;;
6531;SDS011;3299;42.004;24.868;2023-11-19T06:48:21;1.55;;;1.52;;
6531;SDS011;3299;42.004;24.868;2023-11-19T06:50:47;1.08;;;1.08;;
6531;SDS011;3299;42.004;24.868;2023-11-19T06:53:12;1.25;;;1.25;;
6531;SDS011;3299;42.004;24.868;2023-11-19T06:55:38;1.25;;;1.25;;
6531;SDS011;3299;42.004;24.868;2023-11-19T06:58:03;1.30;;;1.30;;
6531;SDS011;3299;42.004;24.868;2023-11-19T07:00:29;1.27;;;1.27;;
6531;SDS011;3299;42.004;24.868;2023-11-19T07:02:56;1.33;;;1.27;;
6531;SDS011;3299;42.004;24.868;2023-11-19T07:05:22;1.13;;;1.13;;
6531;SDS011;3299;42.004;24.868;2023-11-19T07:07:48;1.30;;;1.20;;
6531;SDS011;3299;42.004;24.868;2023-11-19T07:10:14;1.83;;;1.50;;
6531;SDS011;3299;42.004;24.868;2023-11-19T07:12:40;1.25;;;1.15;;
6531;SDS011;3299;42.004;24.868;2023-11-19T07:15:07;2.47;;;1.30;;
6531;SDS011;3299;42.004;24.868;2023-11-19T07:17:33;1.65;;;1.30;;
6531;SDS011;3299;42.004;24.868;2023-11-19T07:20:00;1.50;;;1.17;;
6531;SDS011;3299;42.004;24.868;2023-11-19T07:22:26;2.35;;;1.23;;
6531;SDS011;3299;42.004;24.868;2023-11-19T07:24:51;1.10;;;1.10;;
6531;SDS011;3299;42.004;24.868;2023-11-19T07:27:18;1.20;;;1.10;;
6531;SDS011;3299;42.004;24.868;2023-11-19T07:29:44;1.00;;;1.00;;
6531;SDS011;3299;42.004;24.868;2023-11-19T07:32:10;4.22;;;1.23;;
6531;SDS011;3299;42.004;24.868;2023-11-19T07:34:35;1.17;;;1.17;;
6531;SDS011;3299;42.004;24.868;2023-11-19T07:37:01;1.42;;;1.33;;
6531;SDS011;3299;42.004;24.868;2023-11-19T07:39:28;1.83;;;1.05;;
6531;SDS011;3299;42.004;24.868;2023-11-19T07:41:54;1.58;;;1.48;;
6531;SDS011;3299;42.004;24.868;2023-11-19T07:44:20;1.20;;;1.20;;
6531;SDS011;3299;42.004;24.868;2023-11-19T07:46:46;1.63;;;1.40;;
6531;SDS011;3299;42.004;24.868;2023-11-19T07:49:13;1.30;;;1.30;;
6531;SDS011;3299;42.004;24.868;2023-11-19T07:51:38;1.13;;;1.13;;
6531;SDS011;3299;42.004;24.868;2023-11-19T07:54:04;1.40;;;1.30;;
6531;SDS011;3299;42.004;24.868;2023-11-19T07:56:29;1.50;;;1.40;;
6531;SDS011;3299;42.004;24.868;2023-11-19T07:58:55;2.03;;;1.92;;
6531;SDS011;3299;42.004;24.868;2023-11-19T08:01:20;1.90;;;1.80;;
6531;SDS011;3299;42.004;24.868;2023-11-19T08:03:48;1.42;;;1.35;;
6531;SDS011;3299;42.004;24.868;2023-11-19T08:06:14;1.00;;;1.00;;
6531;SDS011;3299;42.004;24.868;2023-11-19T08:08:39;1.20;;;1.20;;
6531;SDS011;3299;42.004;24.868;2023-11-19T08:11:05;1.30;;;1.20;;
6531;SDS011;3299;42.004;24.868;2023-11-19T08:13:30;1.45;;;1.42;;
6531;SDS011;3299;42.004;24.868;2023-11-19T08:15:57;1.30;;;1.20;;
6531;SDS011;3299;42.004;24.868;2023-11-19T08:18:23;1.95;;;1.85;;
6531;SDS011;3299;42.004;24.868;2023-11-19T08:20:49;1.55;;;1.45;;
6531;SDS011;3299;42.004;24.868;2023-11-19T08:23:17;1.45;;;1.35;;
6531;SDS011;3299;42.004;24.868;2023-11-19T08:25:43;1.50;;;1.40;;
6531;SDS011;3299;42.004;24.868;2023-11-19T08:28:09;1.38;;;1.30;;
6531;SDS011;3299;42.004;24.868;2023-11-19T08:30:35;1.63;;;1.52;;
6531;SDS011;3299;42.004;24.868;2023-11-19T08:33:00;1.80;;;1.70;;
6531;SDS011;3299;42.004;24.868;2023-11-19T08:35:28;2.67;;;2.40;;
6531;SDS011;3299;42.004;24.868;2023-11-19T08:37:56;2.42;;;2.22;;
6531;SDS011;3299;42.004;24.868;2023-11-19T08:40:22;1.35;;;1.30;;
6531;SDS011;3299;42.004;24.868;2023-11-19T08:42:47;1.33;;;1.33;;
6531;SDS011;3299;42.004;24.868;2023-11-19T08:45:13;1.92;;;1.70;;
6531;SDS011;3299;42.004;24.868;2023-11-19T08:47:38;1.58;;;1.48;;
6531;SDS011;3299;42.004;24.868;2023-11-19T08:50:05;1.40;;;1.40;;
6531;SDS011;3299;42.004;24.868;2023-11-19T08:52:31;1.77;;;1.30;;
6531;SDS011;3299;42.004;24.868;2023-11-19T08:54:56;2.75;;;1.80;;
6531;SDS011;3299;42.004;24.868;2023-11-19T08:57:22;1.70;;;1.60;;
6531;SDS011;3299;42.004;24.868;2023-11-19T08:59:47;1.48;;;1.40;;
6531;SDS011;3299;42.004;24.868;2023-11-19T09:02:13;1.55;;;1.23;;
6531;SDS011;3299;42.004;24.868;2023-11-19T09:04:38;1.55;;;1.40;;
6531;SDS011;3299;42.004;24.868;2023-11-19T09:07:04;1.67;;;1.58;;
6531;SDS011;3299;42.004;24.868;2023-11-19T09:09:29;1.60;;;1.30;;
6531;SDS011;3299;42.004;24.868;2023-11-19T09:11:55;1.45;;;1.35;;
6531;SDS011;3299;42.004;24.868;2023-11-19T09:14:21;1.48;;;1.40;;
6531;SDS011;3299;42.004;24.868;2023-11-19T09:16:50;3.42;;;1.60;;
6531;SDS011;3299;42.004;24.868;2023-11-19T09:19:16;2.50;;;1.60;;
6531;SDS011;3299;42.004;24.868;2023-11-19T09:21:42;3.53;;;1.70;;
6531;SDS011;3299;42.004;24.868;2023-11-19T09:24:08;1.40;;;1.35;;
6531;SDS011;3299;42.004;24.868;2023-11-19T09:26:34;1.58;;;1.58;;
6531;SDS011;3299;42.004;24.868;2023-11-19T09:29:01;3.30;;;1.55;;
6531;SDS011;3299;42.004;24.868;2023-11-19T09:31:27;1.48;;;1.45;;
6531;SDS011;3299;42.004;24.868;2023-11-19T09:33:52;1.70;;;1.70;;
6531;SDS011;3299;42.004;24.868;2023-11-19T09:36:17;1.45;;;1.38;;
6531;SDS011;3299;42.004;24.868;2023-11-19T09:38:44;2.13;;;2.03;;
6531;SDS011;3299;42.004;24.868;2023-11-19T09:41:09;1.20;;;1.10;;
6531;SDS011;3299;42.004;24.868;2023-11-19T09:43:41;1.30;;;1.30;;
6531;SDS011;3299;42.004;24.868;2023-11-19T09:46:10;1.60;;;1.50;;
6531;SDS011;3299;42.004;24.868;2023-11-19T09:48:38;1.70;;;1.60;;
6531;SDS011;3299;42.004;24.868;2023-11-19T09:51:10;1.88;;;1.25;;
6531;SDS011;3299;42.004;24.868;2023-11-19T09:53:36;1.45;;;1.35;;
6531;SDS011;3299;42.004;24.868;2023-11-19T09:56:03;1.50;;;1.40;;
6531;SDS011;3299;42.004;24.868;2023-11-19T09:58:30;1.48;;;1.38;;
6531;SDS011;3299;42.004;24.868;2023-11-19T10:00:56;1.23;;;1.17;;
6531;SDS011;3299;42.004;24.868;2023-11-19T10:03:27;1.65;;;1.55;;
6531;SDS011;3299;42.004;24.868;2023-11-19T10:05:57;1.35;;;1.30;;
6531;SDS011;3299;42.004;24.868;2023-11-19T10:08:24;1.58;;;1.48;;
6531;SDS011;3299;42.004;24.868;2023-11-19T10:10:50;1.83;;;1.73;;
6531;SDS011;3299;42.004;24.868;2023-11-19T10:13:17;1.77;;;1.67;;
6531;SDS011;3299;42.004;24.868;2023-11-19T10:15:42;1.48;;;1.38;;
6531;SDS011;3299;42.004;24.868;2023-11-19T10:18:08;1.92;;;1.83;;
6531;SDS011;3299;42.004;24.868;2023-11-19T10:20:37;1.70;;;1.60;;
6531;SDS011;3299;42.004;24.868;2023-11-19T10:23:05;1.70;;;1.60;;
6531;SDS011;3299;42.004;24.868;2023-11-19T10:25:30;2.75;;;1.80;;
6531;SDS011;3299;42.004;24.868;2023-11-19T10:27:58;2.00;;;1.90;;
6531;SDS011;3299;42.004;24.868;2023-11-19T10:30:27;1.83;;;1.48;;
6531;SDS011;3299;42.004;24.868;2023-11-19T10:33:06;1.90;;;1.80;;
6531;SDS011;3299;42.004;24.868;2023-11-19T10:35:33;1.58;;;1.48;;
6531;SDS011;3299;42.004;24.868;2023-11-19T10:38:14;2.10;;;1.90;;
6531;SDS011;3299;42.004;24.868;2023-11-19T10:40:40;1.35;;;1.35;;
6531;SDS011;3299;42.004;24.868;2023-11-19T10:43:06;1.75;;;1.65;;
6531;SDS011;3299;42.004;24.868;2023-11-19T10:45:35;1.60;;;1.50;;
6531;SDS011;3299;42.004;24.868;2023-11-19T10:48:02;2.05;;;1.95;;
6531;SDS011;3299;42.004;24.868;2023-11-19T10:50:34;2.95;;;2.65;;
6531;SDS011;3299;42.004;24.868;2023-11-19T10:53:01;2.88;;;2.67;;
6531;SDS011;3299;42.004;24.868;2023-11-19T10:55:32;2.20;;;2.08;;
6531;SDS011;3299;42.004;24.868;2023-11-19T10:58:03;2.08;;;1.88;;
6531;SDS011;3299;42.004;24.868;2023-11-19T11:00:33;2.88;;;1.77;;
6531;SDS011;3299;42.004;24.868;2023-11-19T11:03:15;2.00;;;1.90;;
6531;SDS011;3299;42.004;24.868;2023-11-19T11:05:42;2.15;;;1.98;;
6531;SDS011;3299;42.004;24.868;2023-11-19T11:08:09;2.22;;;2.03;;
6531;SDS011;3299;42.004;24.868;2023-11-19T11:10:37;2.83;;;2.15;;
6531;SDS011;3299;42.004;24.868;2023-11-19T11:13:07;2.00;;;1.90;;
6531;SDS011;3299;42.004;24.868;2023-11-19T11:15:33;2.35;;;2.20;;
6531;SDS011;3299;42.004;24.868;2023-11-19T11:18:00;2.55;;;2.35;;
6531;SDS011;3299;42.004;24.868;2023-11-19T11:20:28;2.20;;;2.10;;
6531;SDS011;3299;42.004;24.868;2023-11-19T11:25:40;2.00;;;1.80;;
6531;SDS011;3299;42.004;24.868;2023-11-19T11:36:24;2.13;;;1.95;;
6531;SDS011;3299;42.004;24.868;2023-11-19T11:38:51;3.85;;;2.50;;
6531;SDS011;3299;42.004;24.868;2023-11-19T11:43:47;1.77;;;1.60;;
6531;SDS011;3299;42.004;24.868;2023-11-19T11:48:57;2.05;;;1.95;;
6531;SDS011;3299;42.004;24.868;2023-11-19T12:02:08;2.38;;;2.25;;
6531;SDS011;3299;42.004;24.868;2023-11-19T12:04:35;2.65;;;2.45;;
6531;SDS011;3299;42.004;24.868;2023-11-19T12:09:41;3.80;;;3.17;;
6531;SDS011;3299;42.004;24.868;2023-11-19T12:18:06;2.67;;;2.47;;
6531;SDS011;3299;42.004;24.868;2023-11-19T12:20:16;2.13;;;2.00;;
6531;SDS011;3299;42.004;24.868;2023-11-19T12:22:44;2.50;;;2.30;;
6531;SDS011;3299;42.004;24.868;2023-11-19T12:25:11;6.82;;;2.40;;
6531;SDS011;3299;42.004;24.868;2023-11-19T12:27:41;3.17;;;2.17;;
6531;SDS011;3299;42.004;24.868;2023-11-19T12:30:08;2.83;;;2.63;;
6531;SDS011;3299;42.004;24.868;2023-11-19T12:32:38;2.63;;;2.42;;
6531;SDS011;3299;42.004;24.868;2023-11-19T12:35:10;2.50;;;2.30;;
6531;SDS011;3299;42.004;24.868;2023-11-19T12:42:48;2.53;;;2.40;;
6531;SDS011;3299;42.004;24.868;2023-11-19T12:45:14;2.70;;;2.50;;
6531;SDS011;3299;42.004;24.868;2023-11-19T12:47:41;2.80;;;2.60;;
6531;SDS011;3299;42.004;24.868;2023-11-19T12:50:07;2.80;;;2.60;;
6531;SDS011;3299;42.004;24.868;2023-11-19T12:52:37;2.95;;;2.75;;
6531;SDS011;3299;42.004;24.868;2023-11-19T12:55:03;2.78;;;2.58;;
6531;SDS011;3299;42.004;24.868;2023-11-19T12:57:47;2.55;;;2.35;;
6531;SDS011;3299;42.004;24.868;2023-11-19T13:00:19;2.65;;;2.55;;
6531;SDS011;3299;42.004;24.868;2023-11-19T13:02:49;2.88;;;2.70;;
6531;SDS011;3299;42.004;24.868;2023-11-19T13:05:24;2.97;;;2.78;;
6531;SDS011;3299;42.004;24.868;2023-11-19T13:08:02;2.63;;;2.42;;
6531;SDS011;3299;42.004;24.868;2023-11-19T13:13:17;3.40;;;3.10;;
6531;SDS011;3299;42.004;24.868;2023-11-19T13:15:42;2.72;;;2.53;;
6531;SDS011;3299;42.004;24.868;2023-11-19T13:18:10;2.65;;;2.45;;
6531;SDS011;3299;42.004;24.868;2023-11-19T13:20:36;3.35;;;2.63;;
6531;SDS011;3299;42.004;24.868;2023-11-19T13:23:02;3.67;;;2.47;;
6531;SDS011;3299;42.004;24.868;2023-11-19T13:25:28;2.72;;;2.53;;
6531;SDS011;3299;42.004;24.868;2023-11-19T13:27:55;3.10;;;2.70;;
6531;SDS011;3299;42.004;24.868;2023-11-19T13:30:21;4.28;;;3.65;;
6531;SDS011;3299;42.004;24.868;2023-11-19T13:32:47;3.53;;;3.22;;
6531;SDS011;3299;42.004;24.868;2023-11-19T13:35:14;3.13;;;2.92;;
6531;SDS011;3299;42.004;24.868;2023-11-19T13:37:40;2.83;;;2.63;;
6531;SDS011;3299;42.004;24.868;2023-11-19T13:40:06;4.72;;;3.25;;
6531;SDS011;3299;42.004;24.868;2023-11-19T13:42:32;4.22;;;3.83;;
6531;SDS011;3299;42.004;24.868;2023-11-19T13:44:58;5.43;;;4.30;;
6531;SDS011;3299;42.004;24.868;2023-11-19T13:47:24;4.38;;;3.72;;
6531;SDS011;3299;42.004;24.868;2023-11-19T13:49:49;5.05;;;3.65;;
6531;SDS011;3299;42.004;24.868;2023-11-19T13:52:15;5.20;;;4.07;;
6531;SDS011;3299;42.004;24.868;2023-11-19T13:54:40;9.02;;;6.78;;
6531;SDS011;3299;42.004;24.868;2023-11-19T13:57:06;4.47;;;4.07;;
6531;SDS011;3299;42.004;24.868;2023-11-19T13:59:32;5.80;;;4.70;;
6531;SDS011;3299;42.004;24.868;2023-11-19T14:01:57;5.68;;;5.03;;
6531;SDS011;3299;42.004;24.868;2023-11-19T14:04:23;10.23;;;7.63;;
6531;SDS011;3299;42.004;24.868;2023-11-19T14:06:49;5.30;;;4.50;;
6531;SDS011;3299;42.004;24.868;2023-11-19T14:09:14;4.65;;;4.22;;
6531;SDS011;3299;42.004;24.868;2023-11-19T14:11:40;3.97;;;3.67;;
6531;SDS011;3299;42.004;24.868;2023-11-19T14:14:07;3.92;;;3.40;;
6531;SDS011;3299;42.004;24.868;2023-11-19T14:16:33;17.88;;;9.45;;
6531;SDS011;3299;42.004;24.868;2023-11-19T14:18:59;11.98;;;7.63;;
6531;SDS011;3299;42.004;24.868;2023-11-19T14:21:25;12.98;;;7.25;;
6531;SDS011;3299;42.004;24.868;2023-11-19T14:23:51;29.35;;;14.27;;
6531;SDS011;3299;42.004;24.868;2023-11-19T14:26:17;55.65;;;25.60;;
6531;SDS011;3299;42.004;24.868;2023-11-19T14:28:43;55.63;;;26.30;;
6531;SDS011;3299;42.004;24.868;2023-11-19T14:31:09;36.92;;;18.80;;
6531;SDS011;3299;42.004;24.868;2023-11-19T14:33:34;31.58;;;15.68;;
6531;SDS011;3299;42.004;24.868;2023-11-19T14:36:01;40.40;;;19.58;;
6531;SDS011;3299;42.004;24.868;2023-11-19T14:38:27;24.25;;;13.88;;
6531;SDS011;3299;42.004;24.868;2023-11-19T14:40:53;27.67;;;16.58;;
6531;SDS011;3299;42.004;24.868;2023-11-19T14:43:19;24.00;;;15.60;;
6531;SDS011;3299;42.004;24.868;2023-11-19T14:45:45;30.55;;;16.50;;
6531;SDS011;3299;42.004;24.868;2023-11-19T14:48:10;19.83;;;11.70;;
6531;SDS011;3299;42.004;24.868;2023-11-19T14:50:36;35.88;;;18.35;;
6531;SDS011;3299;42.004;24.868;2023-11-19T14:53:01;26.85;;;12.70;;
6531;SDS011;3299;42.004;24.868;2023-11-19T14:55:27;19.83;;;11.48;;
6531;SDS011;3299;42.004;24.868;2023-11-19T14:57:53;25.00;;;12.85;;
6531;SDS011;3299;42.004;24.868;2023-11-19T15:00:18;16.42;;;11.05;;
6531;SDS011;3299;42.004;24.868;2023-11-19T15:02:44;16.98;;;12.13;;
6531;SDS011;3299;42.004;24.868;2023-11-19T15:05:10;9.35;;;7.25;;
6531;SDS011;3299;42.004;24.868;2023-11-19T15:07:38;6.40;;;5.40;;
6531;SDS011;3299;42.004;24.868;2023-11-19T15:10:05;7.05;;;5.00;;
6531;SDS011;3299;42.004;24.868;2023-11-19T15:12:38;5.85;;;5.25;;
6531;SDS011;3299;42.004;24.868;2023-11-19T15:15:10;10.32;;;6.60;;
6531;SDS011;3299;42.004;24.868;2023-11-19T15:17:38;4.85;;;4.03;;
6531;SDS011;3299;42.004;24.868;2023-11-19T15:20:07;5.40;;;4.03;;
6531;SDS011;3299;42.004;24.868;2023-11-19T15:22:33;4.68;;;3.63;;
6531;SDS011;3299;42.004;24.868;2023-11-19T15:24:59;7.15;;;5.70;;
6531;SDS011;3299;42.004;24.868;2023-11-19T15:27:24;4.40;;;3.90;;
6531;SDS011;3299;42.004;24.868;2023-11-19T15:29:50;5.15;;;4.65;;
6531;SDS011;3299;42.004;24.868;2023-11-19T15:32:15;5.13;;;4.50;;
6531;SDS011;3299;42.004;24.868;2023-11-19T15:34:41;6.80;;;5.78;;
6531;SDS011;3299;42.004;24.868;2023-11-19T15:37:07;19.55;;;10.38;;
6531;SDS011;3299;42.004;24.868;2023-11-19T15:39:33;16.95;;;9.80;;